createdAt,value
2018-10-19T00:00:02.854Z,12.33
2018-10-19T00:02:30.786Z,11.33
2018-10-19T00:04:58.604Z,14.27
2018-10-19T00:07:26.498Z,12.07
2018-10-19T00:09:54.273Z,11.33
2018-10-19T00:12:21.962Z,11.20
2018-10-19T00:14:50.134Z,11.10
2018-10-19T00:17:17.779Z,11.80
2018-10-19T00:19:45.741Z,10.40
2018-10-19T00:22:13.630Z,10.83
2018-10-19T00:24:41.534Z,11.10
2018-10-19T00:28:44.697Z,10.18
2018-10-19T00:31:12.574Z,10.93
2018-10-19T00:33:40.418Z,10.80
2018-10-19T00:36:08.198Z,10.80
2018-10-19T00:38:36.187Z,11.03
2018-10-19T00:41:04.578Z,10.77
2018-10-19T00:43:32.311Z,10.67
2018-10-19T00:46:00.018Z,10.73
2018-10-19T00:48:28.510Z,12.60
2018-10-19T00:50:56.243Z,13.10
2018-10-19T00:53:23.934Z,12.85
2018-10-19T00:55:51.954Z,11.73
2018-10-19T00:58:19.690Z,12.50
2018-10-19T01:00:47.578Z,11.67
2018-10-19T01:03:15.508Z,12.57
2018-10-19T01:05:43.210Z,12.13
2018-10-19T01:10:38.834Z,10.97
2018-10-19T01:13:06.670Z,10.93
2018-10-19T01:15:34.578Z,11.67
2018-10-19T01:18:02.966Z,11.07
2018-10-19T01:20:30.842Z,11.33
2018-10-19T01:25:26.038Z,10.43
2018-10-19T01:27:53.899Z,10.60
2018-10-19T01:30:21.726Z,11.60
2018-10-19T01:32:49.609Z,12.75
2018-10-19T01:35:17.483Z,13.13
2018-10-19T01:40:13.277Z,13.68
2018-10-19T01:43:12.698Z,11.28
2018-10-19T01:45:46.597Z,11.30
2018-10-19T01:48:14.679Z,11.20
2018-10-19T01:50:42.518Z,11.57
2018-10-19T01:53:10.361Z,10.73
2018-10-19T01:55:38.216Z,10.70
2018-10-19T01:58:05.910Z,10.93
2018-10-19T02:00:33.726Z,11.63
2018-10-19T02:03:01.537Z,12.53
2018-10-19T02:05:29.210Z,13.67
2018-10-19T02:07:57.038Z,12.63
2018-10-19T02:10:24.902Z,14.43
2018-10-19T02:12:52.726Z,13.17
2018-10-19T02:15:20.578Z,12.95
2018-10-19T02:17:48.483Z,13.27
2018-10-19T02:22:43.777Z,12.13
2018-10-19T02:25:12.860Z,12.33
2018-10-19T02:27:42.185Z,11.68
2018-10-19T02:32:40.200Z,11.57
2018-10-19T02:37:38.742Z,11.15
2018-10-19T02:40:08.854Z,11.70
2018-10-19T02:42:38.822Z,12.37
2018-10-19T02:45:09.659Z,12.67
2018-10-19T02:47:38.926Z,12.87
2018-10-19T02:50:08.845Z,14.13
2018-10-19T02:52:38.858Z,13.50
2018-10-19T02:55:08.903Z,13.50
2018-10-19T02:57:38.793Z,13.00
2018-10-19T03:00:10.009Z,11.22
2018-10-19T03:05:08.902Z,11.38
2018-10-19T03:10:07.840Z,11.15
2018-10-19T03:12:36.981Z,11.53
2018-10-19T03:15:07.880Z,10.95
2018-10-19T03:17:37.834Z,11.55
2018-10-19T03:20:07.975Z,11.77
2018-10-19T03:22:37.841Z,13.97
2018-10-19T03:25:07.846Z,14.60
2018-10-19T03:27:37.819Z,13.65
2018-10-19T03:30:07.862Z,13.65
2018-10-19T03:32:36.976Z,13.03
2018-10-19T03:35:07.921Z,11.45
2018-10-19T03:37:36.958Z,10.93
2018-10-19T03:41:42.985Z,13.20
2018-10-19T03:44:10.719Z,13.30
2018-10-19T03:46:38.633Z,12.40
2018-10-19T03:49:06.672Z,12.10
2018-10-19T03:51:34.493Z,11.40
2018-10-19T03:54:02.333Z,11.27
2018-10-19T03:56:30.064Z,11.37
2018-10-19T03:58:58.053Z,12.00
2018-10-19T04:01:25.753Z,11.03
2018-10-19T04:03:53.593Z,10.93
2018-10-19T04:08:48.860Z,10.53
2018-10-19T04:11:16.844Z,11.40
2018-10-19T04:13:44.642Z,13.43
2018-10-19T04:16:12.540Z,14.13
2018-10-19T04:18:40.489Z,14.58
2018-10-19T04:21:08.268Z,13.70
2018-10-19T04:23:36.026Z,14.80
2018-10-19T04:26:04.212Z,14.10
2018-10-19T04:28:32.379Z,14.50
2018-10-19T04:31:00.215Z,12.33
2018-10-19T04:33:27.979Z,12.67
2018-10-19T04:35:55.974Z,11.90
2018-10-19T04:38:23.960Z,10.75
2018-10-19T04:40:51.992Z,12.40
2018-10-19T04:43:19.821Z,11.00
2018-10-19T04:45:47.722Z,10.80
2018-10-19T04:48:15.764Z,12.30
2018-10-19T04:50:43.710Z,11.53
2018-10-19T04:53:21.638Z,12.30
2018-10-19T04:55:49.588Z,15.53
2018-10-19T04:58:17.515Z,14.17
2018-10-19T05:00:45.567Z,14.80
2018-10-19T05:03:13.557Z,15.03
2018-10-19T05:06:48.898Z,13.72
2018-10-19T05:09:16.875Z,11.10
2018-10-19T05:11:44.706Z,15.17
2018-10-19T05:14:12.678Z,14.10
2018-10-19T05:16:40.594Z,15.47
2018-10-19T05:19:08.678Z,13.17
2018-10-19T05:21:37.214Z,15.33
2018-10-19T05:24:05.170Z,14.60
2018-10-19T05:26:33.590Z,18.67
2018-10-19T05:31:28.895Z,15.27
2018-10-19T05:33:57.392Z,18.40
2018-10-19T05:36:25.694Z,21.37
2018-10-19T05:38:53.603Z,22.60
2018-10-19T05:41:21.567Z,28.17
2018-10-19T05:43:49.550Z,22.27
2018-10-19T05:46:17.470Z,23.13
2018-10-19T05:48:45.795Z,21.23
2018-10-19T05:51:13.721Z,22.37
2018-10-19T05:53:41.594Z,17.83
2018-10-19T05:56:09.596Z,18.97
2018-10-19T05:58:37.385Z,20.65
2018-10-19T06:01:08.993Z,15.40
2018-10-19T06:03:36.806Z,18.53
2018-10-19T06:06:04.674Z,23.73
2018-10-19T06:12:26.475Z,16.65
2018-10-19T06:14:54.342Z,18.20
2018-10-19T06:17:22.312Z,18.60
2018-10-19T06:19:50.032Z,18.70
2018-10-19T06:22:17.983Z,18.13
2018-10-19T06:27:13.712Z,17.17
2018-10-19T06:29:41.592Z,16.20
2018-10-19T06:32:09.544Z,16.37
2018-10-19T06:34:37.310Z,24.63
2018-10-19T06:37:05.075Z,14.45
2018-10-19T06:39:33.075Z,15.00
2018-10-19T06:42:00.998Z,15.95
2018-10-19T06:46:56.209Z,15.43
2018-10-19T06:49:24.166Z,13.55
2018-10-19T06:51:52.327Z,15.13
2018-10-19T06:58:55.610Z,15.03
2018-10-19T07:01:23.496Z,15.03
2018-10-19T07:03:51.478Z,13.72
2018-10-19T07:06:19.364Z,15.37
2018-10-19T07:08:47.124Z,22.33
2018-10-19T07:11:15.009Z,17.37
2018-10-19T07:13:42.682Z,17.48
2018-10-19T07:16:10.468Z,18.87
2018-10-19T07:18:38.309Z,19.20
2018-10-19T07:21:06.059Z,16.00
2018-10-19T07:26:01.632Z,16.63
2018-10-19T07:28:29.485Z,14.23
2018-10-19T07:30:57.231Z,12.10
2018-10-19T07:33:25.039Z,13.20
2018-10-19T07:38:20.228Z,14.07
2018-10-19T07:40:47.969Z,13.48
2018-10-19T07:45:43.006Z,13.47
2018-10-19T07:48:13.091Z,13.13
2018-10-19T07:50:42.997Z,14.43
2018-10-19T07:53:13.066Z,17.17
2018-10-19T07:56:17.738Z,15.95
2018-10-19T07:58:45.390Z,14.13
2018-10-19T08:01:13.297Z,15.13
2018-10-19T08:06:10.014Z,13.07
2018-10-19T08:08:37.868Z,14.10
2018-10-19T08:11:06.083Z,14.50
2018-10-19T08:13:33.917Z,12.25
2018-10-19T08:16:01.831Z,13.97
2018-10-19T08:18:29.698Z,14.07
2018-10-19T08:20:57.650Z,13.50
2018-10-19T08:23:25.484Z,19.57
2018-10-19T08:25:53.372Z,16.33
2018-10-19T08:30:48.517Z,18.20
2018-10-19T08:33:16.223Z,18.70
2018-10-19T08:35:44.049Z,17.77
2018-10-19T08:38:11.990Z,16.93
2018-10-19T08:43:07.097Z,14.73
2018-10-19T08:45:35.022Z,14.18
2018-10-19T08:50:30.523Z,14.43
2018-10-19T08:52:58.523Z,13.50
2018-10-19T08:55:26.227Z,12.70
2018-10-19T08:57:54.293Z,12.60
2018-10-19T09:00:22.075Z,12.40
2018-10-19T09:06:00.497Z,19.50
2018-10-19T09:08:28.229Z,16.87
2018-10-19T09:10:58.024Z,18.35
2018-10-19T09:13:28.043Z,15.53
2018-10-19T09:18:34.905Z,13.05
2018-10-19T09:21:02.973Z,13.20
2018-10-19T09:23:30.694Z,12.87
2018-10-19T09:28:26.458Z,13.25
2018-10-19T09:30:54.374Z,13.73
2018-10-19T09:33:22.231Z,15.77
2018-10-19T09:35:50.076Z,16.73
2018-10-19T09:38:18.381Z,20.77
2018-10-19T09:40:46.341Z,21.48
2018-10-19T09:43:15.490Z,23.10
2018-10-19T09:45:43.317Z,21.00
2018-10-19T09:48:11.056Z,24.47
2018-10-19T09:50:38.949Z,19.87
2018-10-19T09:53:10.809Z,15.00
2018-10-19T09:55:38.762Z,14.37
2018-10-19T09:58:06.626Z,14.30
2018-10-19T10:00:40.611Z,15.73
2018-10-19T10:03:08.650Z,14.43
2018-10-19T10:08:04.172Z,17.30
2018-10-19T10:10:35.211Z,16.30
2018-10-19T10:13:03.040Z,19.37
2018-10-19T10:15:31.061Z,21.33
2018-10-19T10:17:58.886Z,20.88
2018-10-19T10:20:26.723Z,22.17
2018-10-19T10:22:54.611Z,20.70
2018-10-19T10:25:23.182Z,22.03
2018-10-19T10:27:50.887Z,20.67
2018-10-19T10:30:20.913Z,19.10
2018-10-19T10:35:19.967Z,27.93
2018-10-19T10:37:49.974Z,25.53
2018-10-19T10:40:20.024Z,31.33
2018-10-19T10:42:49.990Z,35.57
2018-10-19T10:45:19.945Z,38.50
2018-10-19T10:47:53.953Z,34.00
2018-10-19T10:50:23.890Z,40.43
2018-10-19T10:52:53.971Z,41.30
2018-10-19T10:55:23.971Z,67.83
2018-10-19T10:57:54.008Z,65.60
2018-10-19T11:00:23.962Z,68.00
2018-10-19T11:02:53.982Z,70.77
2018-10-19T11:05:23.938Z,67.87
2018-10-19T11:07:53.986Z,70.43
2018-10-19T11:10:23.997Z,71.43
2018-10-19T11:12:53.985Z,63.33
2018-10-19T11:15:23.970Z,70.57
2018-10-19T11:17:53.952Z,64.73
2018-10-19T11:20:23.975Z,60.03
2018-10-19T11:22:53.995Z,54.33
2018-10-19T11:25:24.000Z,53.77
2018-10-19T11:27:54.011Z,50.73
2018-10-19T11:30:23.971Z,49.97
2018-10-19T11:32:54.002Z,49.63
2018-10-19T11:35:23.978Z,52.37
2018-10-19T11:40:37.620Z,51.88
2018-10-19T11:43:05.889Z,52.60
2018-10-19T11:48:01.914Z,48.53
2018-10-19T11:50:29.899Z,47.77
2018-10-19T11:52:57.999Z,57.90
2018-10-19T11:55:25.985Z,51.85
2018-10-19T11:57:53.987Z,51.68
2018-10-19T12:00:21.838Z,43.43
2018-10-19T12:02:49.915Z,45.28
2018-10-19T12:05:17.782Z,48.97
2018-10-19T12:07:45.889Z,42.53
2018-10-19T12:10:14.157Z,47.40
2018-10-19T12:15:11.567Z,46.27
2018-10-19T12:17:40.016Z,45.73
2018-10-19T12:22:37.022Z,46.33
2018-10-19T12:25:06.767Z,44.47
2018-10-19T12:27:36.959Z,49.30
2018-10-19T12:30:06.958Z,43.63
2018-10-19T12:32:36.949Z,41.10
2018-10-19T12:35:07.927Z,45.83
2018-10-19T12:40:07.927Z,43.53
2018-10-19T12:42:37.981Z,42.00
2018-10-19T12:45:20.841Z,44.77
2018-10-19T12:49:06.976Z,41.15
2018-10-19T12:51:37.009Z,42.37
2018-10-19T12:54:07.135Z,39.70
2018-10-19T12:56:36.971Z,40.37
2018-10-19T12:59:06.961Z,44.70
2018-10-19T13:01:36.973Z,42.27
2018-10-19T13:04:07.867Z,40.60
2018-10-19T13:06:37.877Z,38.90
2018-10-19T13:09:11.004Z,41.07
2018-10-19T13:11:40.922Z,38.33
2018-10-19T13:14:10.926Z,44.30
2018-10-19T13:17:23.298Z,46.18
2018-10-19T13:19:51.180Z,40.33
2018-10-19T13:22:18.763Z,41.67
2018-10-19T13:24:46.763Z,45.80
2018-10-19T13:27:15.079Z,43.03
2018-10-19T13:29:42.946Z,46.90
2018-10-19T13:34:38.588Z,40.38
2018-10-19T13:37:06.574Z,39.43
2018-10-19T13:42:01.629Z,38.50
2018-10-19T13:44:29.446Z,38.37
2018-10-19T13:46:57.187Z,37.60
2018-10-19T13:49:25.330Z,37.55
2018-10-19T13:51:53.322Z,39.70
2018-10-19T13:54:21.257Z,36.83
2018-10-19T13:56:48.966Z,37.53
2018-10-19T13:59:16.851Z,38.90
2018-10-19T14:01:44.586Z,41.23
2018-10-19T14:04:12.410Z,40.37
2018-10-19T14:07:31.846Z,39.05
2018-10-19T14:12:30.754Z,36.40
2018-10-19T14:15:00.854Z,39.63
2018-10-19T14:24:57.970Z,38.67
2018-10-19T14:27:27.754Z,36.50
2018-10-19T14:29:57.164Z,37.20
2018-10-19T14:32:26.746Z,37.73
2018-10-19T14:37:29.478Z,38.17
2018-10-19T14:39:57.211Z,38.77
2018-10-19T14:42:28.704Z,36.70
2018-10-19T14:44:56.618Z,38.37
2018-10-19T14:47:24.663Z,37.93
2018-10-19T14:49:52.402Z,36.37
2018-10-19T14:52:20.173Z,36.23
2018-10-19T14:54:47.897Z,36.27
2018-10-19T14:57:15.791Z,37.05
2018-10-19T15:04:41.998Z,43.60
2018-10-19T15:07:11.853Z,41.80
2018-10-19T15:12:10.935Z,38.50
2018-10-19T15:14:40.903Z,38.33
2018-10-19T15:17:10.669Z,39.60
2018-10-19T15:19:39.834Z,36.57
2018-10-19T15:22:10.183Z,36.33
2018-10-19T15:27:08.664Z,35.30
2018-10-19T15:29:38.009Z,35.75
2018-10-19T15:32:06.875Z,38.92
2018-10-19T15:34:36.221Z,37.35
2018-10-19T15:39:33.950Z,37.30
2018-10-19T15:42:03.708Z,37.20
2018-10-19T15:44:32.914Z,35.17
2018-10-19T15:47:03.590Z,34.70
2018-10-19T15:49:32.827Z,43.93
2018-10-19T15:52:02.182Z,38.28
2018-10-19T15:57:00.865Z,34.98
2018-10-19T15:59:30.200Z,35.68
2018-10-19T16:04:28.194Z,34.90
2018-10-19T16:09:25.954Z,34.63
2018-10-19T16:11:55.858Z,34.27
2018-10-19T16:14:25.748Z,36.90
2018-10-19T16:16:54.914Z,36.63
2018-10-19T16:19:24.630Z,36.38
2018-10-19T16:21:53.950Z,39.60
2018-10-19T16:24:23.618Z,36.83
2018-10-19T16:26:52.828Z,36.85
2018-10-19T16:29:22.067Z,36.53
2018-10-19T16:31:51.610Z,42.03
2018-10-19T16:36:49.198Z,42.70
2018-10-19T16:39:18.619Z,47.08
2018-10-19T16:41:46.929Z,48.58
2018-10-19T16:44:16.734Z,40.92
2018-10-19T16:46:46.735Z,43.70
2018-10-19T16:49:15.915Z,45.05
2018-10-19T16:51:45.212Z,42.13
2018-10-19T16:54:14.678Z,42.60
2018-10-19T16:56:43.766Z,44.77
2018-10-19T16:59:12.838Z,42.45
2018-10-19T17:01:41.918Z,46.92
2018-10-19T17:04:11.078Z,46.33
2018-10-19T17:06:40.621Z,45.00
2018-10-19T17:09:12.875Z,44.23
2018-10-19T17:11:42.897Z,41.85
2018-10-19T17:14:12.730Z,42.80
2018-10-19T17:16:42.071Z,43.00
2018-10-19T17:19:11.805Z,45.10
2018-10-19T17:21:40.877Z,43.38
2018-10-19T17:24:09.949Z,40.40
2018-10-19T17:26:39.176Z,45.30
2018-10-19T17:29:08.735Z,45.48
2018-10-19T17:34:06.704Z,43.40
2018-10-19T17:36:35.846Z,44.30
2018-10-19T17:39:07.918Z,41.65
2018-10-19T17:41:36.931Z,41.73
2018-10-19T17:44:06.647Z,43.98
2018-10-19T17:46:35.808Z,47.93
2018-10-19T17:49:05.074Z,43.60
2018-10-19T17:51:34.727Z,44.98
2018-10-19T17:54:04.033Z,44.80
2018-10-19T17:56:33.709Z,45.03
2018-10-19T17:59:02.890Z,41.48
2018-10-19T18:01:32.613Z,45.43
2018-10-19T18:04:01.831Z,44.48
2018-10-19T18:06:31.075Z,45.17
2018-10-19T18:09:00.841Z,46.80
2018-10-19T18:11:30.253Z,50.60
2018-10-19T18:16:28.750Z,47.45
2018-10-19T18:18:57.895Z,47.27
2018-10-19T18:21:27.737Z,42.80
2018-10-19T18:23:57.190Z,47.85
2018-10-19T18:28:54.943Z,46.40
2018-10-19T18:31:24.209Z,47.83
2018-10-19T18:33:53.801Z,46.23
2018-10-19T18:36:22.828Z,45.15
2018-10-19T18:38:51.971Z,47.85
2018-10-19T18:41:21.802Z,44.98
2018-10-19T18:46:19.606Z,50.60
2018-10-19T18:51:16.931Z,46.13
2018-10-19T18:53:46.683Z,45.55
2018-10-19T18:56:16.055Z,43.13
2018-10-19T18:58:45.880Z,43.83
2018-10-19T19:01:15.920Z,46.35
2018-10-19T19:03:45.633Z,48.50
2018-10-19T19:06:14.811Z,54.65
2018-10-19T19:08:43.954Z,42.98
2018-10-19T19:11:13.114Z,44.53
2018-10-19T19:13:45.819Z,46.28
2018-10-19T19:16:20.914Z,48.73
2018-10-19T19:18:50.806Z,44.55
2018-10-19T19:21:20.645Z,42.03
2018-10-19T19:23:55.002Z,45.80
2018-10-19T19:28:54.850Z,43.00
2018-10-19T19:31:24.171Z,47.57
2018-10-19T19:36:27.619Z,44.70
2018-10-19T19:38:57.849Z,48.55
2018-10-19T19:41:33.222Z,41.90
2018-10-19T19:46:31.181Z,44.37
2018-10-19T19:51:34.909Z,43.83
2018-10-19T19:54:04.798Z,40.50
2018-10-19T19:56:34.793Z,42.27
2018-10-19T19:59:04.211Z,41.08
2018-10-19T20:04:02.173Z,45.98
2018-10-19T20:09:00.066Z,43.00
2018-10-19T20:11:29.787Z,42.65
2018-10-19T20:13:59.182Z,42.08
2018-10-19T20:16:28.812Z,41.10
2018-10-19T20:18:58.790Z,42.35
2018-10-19T20:21:28.192Z,41.93
2018-10-19T20:23:57.840Z,38.83
2018-10-19T20:26:27.984Z,35.80
2018-10-19T20:31:29.198Z,34.77
2018-10-19T20:33:58.825Z,35.80
2018-10-19T20:36:28.858Z,38.77
2018-10-19T20:38:58.765Z,38.33
2018-10-19T20:41:28.830Z,36.77
2018-10-19T20:43:58.228Z,35.67
2018-10-19T20:48:56.587Z,33.93
2018-10-19T20:51:25.847Z,33.30
2018-10-19T20:53:55.762Z,31.57
2018-10-19T20:58:05.461Z,37.05
2018-10-19T21:00:33.334Z,32.17
2018-10-19T21:03:01.046Z,31.67
2018-10-19T21:05:28.914Z,33.58
2018-10-19T21:07:56.809Z,28.77
2018-10-19T21:10:24.586Z,31.40
2018-10-19T21:12:52.540Z,30.27
2018-10-19T21:15:20.481Z,28.62
2018-10-19T21:17:48.454Z,31.17
2018-10-19T21:20:16.370Z,31.63
2018-10-19T21:27:38.862Z,31.93
2018-10-19T21:30:08.933Z,35.70
2018-10-19T21:32:38.842Z,33.47
2018-10-19T21:35:08.877Z,31.60
2018-10-19T21:37:38.777Z,34.50
2018-10-19T21:40:08.835Z,29.07
2018-10-19T21:42:38.630Z,29.77
2018-10-19T21:45:08.844Z,29.48
2018-10-19T21:47:38.638Z,27.30
2018-10-19T21:50:09.046Z,26.97
2018-10-19T21:52:38.619Z,29.23
2018-10-19T21:55:09.843Z,26.65
2018-10-19T21:57:39.843Z,26.93
2018-10-19T22:00:09.938Z,30.30
2018-10-19T22:02:39.758Z,35.00
2018-10-19T22:05:10.959Z,31.30
2018-10-19T22:07:40.994Z,31.13
2018-10-19T22:11:34.795Z,28.00
2018-10-19T22:14:03.951Z,29.73
2018-10-19T22:16:33.830Z,29.40
2018-10-19T22:19:03.575Z,31.47
2018-10-19T22:21:32.891Z,30.60
2018-10-19T22:25:22.858Z,26.47
2018-10-19T22:30:21.771Z,26.70
2018-10-19T22:32:51.896Z,29.83
2018-10-19T22:35:21.786Z,31.20
2018-10-19T22:37:51.783Z,28.27
2018-10-19T22:40:20.978Z,33.53
2018-10-19T22:45:18.966Z,29.03
2018-10-19T22:50:16.950Z,25.77
2018-10-19T22:52:46.853Z,25.80
2018-10-19T22:55:16.954Z,26.20
2018-10-19T23:05:13.676Z,23.22
2018-10-19T23:07:42.809Z,25.13
2018-10-19T23:10:11.962Z,29.98
2018-10-19T23:12:41.736Z,29.48
2018-10-19T23:15:10.878Z,28.90
2018-10-19T23:17:40.774Z,28.85
2018-10-19T23:20:09.962Z,28.42
2018-10-19T23:22:39.809Z,27.30
2018-10-19T23:25:09.848Z,26.40
2018-10-19T23:27:39.626Z,24.35
2018-10-19T23:34:08.714Z,28.13
2018-10-19T23:36:37.007Z,27.57
2018-10-19T23:39:07.874Z,25.27
2018-10-19T23:41:35.658Z,23.90
2018-10-19T23:44:03.439Z,23.20
2018-10-19T23:46:31.308Z,22.93
2018-10-19T23:48:59.236Z,23.47
2018-10-19T23:51:26.969Z,22.33
2018-10-19T23:53:55.007Z,23.37
2018-10-19T23:56:22.883Z,24.43
2018-10-19T23:58:50.802Z,23.40
